createdAt,value
2018-01-21T00:00:02.295Z,1000.45
2018-01-21T00:01:02.289Z,1000.48
2018-01-21T00:02:02.280Z,1000.53
2018-01-21T00:03:02.266Z,1000.57
2018-01-21T00:04:02.260Z,1000.54
2018-01-21T00:05:02.244Z,1000.52
2018-01-21T00:06:02.234Z,1000.55
2018-01-21T00:07:02.223Z,1000.59
2018-01-21T00:08:02.217Z,1000.60
2018-01-21T00:09:02.207Z,1000.64
2018-01-21T00:10:02.198Z,1000.66
2018-01-21T00:11:02.188Z,1000.71
2018-01-21T00:12:02.177Z,1000.72
2018-01-21T00:13:02.169Z,1000.70
2018-01-21T00:14:02.158Z,1000.76
2018-01-21T00:15:02.148Z,1000.79
2018-01-21T00:16:02.138Z,1000.75
2018-01-21T00:17:02.124Z,1000.76
2018-01-21T00:18:02.114Z,1000.78
2018-01-21T00:19:02.104Z,1000.80
2018-01-21T00:20:02.094Z,1000.78
2018-01-21T00:21:02.083Z,1000.88
2018-01-21T00:22:02.073Z,1000.94
2018-01-21T00:23:02.062Z,1000.89
2018-01-21T00:24:02.053Z,1000.88
2018-01-21T00:25:02.047Z,1000.89
2018-01-21T00:26:02.037Z,1000.92
2018-01-21T00:27:02.033Z,1000.94
2018-01-21T00:28:02.017Z,1001.02
2018-01-21T00:29:02.007Z,1001.01
2018-01-21T00:30:01.998Z,1001.03
2018-01-21T00:31:01.986Z,1001.11
2018-01-21T00:32:01.977Z,1001.10
2018-01-21T00:33:01.964Z,1001.08
2018-01-21T00:34:01.952Z,1001.04
2018-01-21T00:35:01.942Z,1001.04
2018-01-21T00:36:01.933Z,1001.06
2018-01-21T00:37:01.922Z,1001.04
2018-01-21T00:38:01.912Z,1001.11
2018-01-21T00:39:01.902Z,1001.11
2018-01-21T00:40:01.891Z,1001.20
2018-01-21T00:41:01.887Z,1001.20
2018-01-21T00:42:01.877Z,1001.22
2018-01-21T00:43:01.865Z,1001.29
2018-01-21T00:44:01.861Z,1001.26
2018-01-21T00:45:01.846Z,1001.30
2018-01-21T00:46:01.836Z,1001.33
2018-01-21T00:47:01.825Z,1001.40
2018-01-21T00:48:01.819Z,1001.39
2018-01-21T00:49:01.802Z,1001.47
2018-01-21T00:50:01.792Z,1001.42
2018-01-21T00:51:01.781Z,1001.43
2018-01-21T00:52:01.771Z,1001.51
2018-01-21T00:53:01.765Z,1001.49
2018-01-21T00:54:01.752Z,1001.55
2018-01-21T00:55:01.741Z,1001.51
2018-01-21T00:56:01.732Z,1001.57
2018-01-21T00:57:01.725Z,1001.57
2018-01-21T00:58:01.716Z,1001.60
2018-01-21T00:59:01.704Z,1001.62
2018-01-21T01:00:01.696Z,1001.66
2018-01-21T01:01:01.685Z,1001.69
2018-01-21T01:02:01.677Z,1001.75
2018-01-21T01:03:01.665Z,1001.77
2018-01-21T01:04:01.655Z,1001.81
2018-01-21T01:05:01.641Z,1001.84
2018-01-21T01:06:01.631Z,1001.88
2018-01-21T01:07:01.620Z,1001.91
2018-01-21T01:08:01.613Z,1001.91
2018-01-21T01:09:01.605Z,1001.92
2018-01-21T01:10:01.596Z,1001.97
2018-01-21T01:11:01.584Z,1001.96
2018-01-21T01:12:01.575Z,1001.99
2018-01-21T01:13:01.562Z,1002.05
2018-01-21T01:14:01.552Z,1002.05
2018-01-21T01:15:01.541Z,1002.06
2018-01-21T01:16:01.531Z,1002.06
2018-01-21T01:17:01.521Z,1002.10
2018-01-21T01:18:01.511Z,1002.16
2018-01-21T01:19:01.501Z,1002.15
2018-01-21T01:20:01.490Z,1002.20
2018-01-21T01:21:01.486Z,1002.23
2018-01-21T01:22:01.475Z,1002.24
2018-01-21T01:23:01.464Z,1002.23
2018-01-21T01:24:01.454Z,1002.27
2018-01-21T01:25:01.445Z,1002.28
2018-01-21T01:26:01.435Z,1002.33
2018-01-21T01:27:01.424Z,1002.32
2018-01-21T01:28:01.414Z,1002.40
2018-01-21T01:29:01.401Z,1002.41
2018-01-21T01:30:01.390Z,1002.41
2018-01-21T01:31:01.378Z,1002.41
2018-01-21T01:32:01.369Z,1002.57
2018-01-21T01:33:01.361Z,1002.53
2018-01-21T01:34:01.350Z,1002.56
2018-01-21T01:35:01.340Z,1002.56
2018-01-21T01:36:01.335Z,1002.61
2018-01-21T01:37:01.323Z,1002.63
2018-01-21T01:38:01.319Z,1002.62
2018-01-21T01:39:01.302Z,1002.64
2018-01-21T01:40:01.293Z,1002.67
2018-01-21T01:41:01.282Z,1002.69
2018-01-21T01:42:01.273Z,1002.75
2018-01-21T01:43:01.263Z,1002.72
2018-01-21T01:44:01.251Z,1002.75
2018-01-21T01:45:01.241Z,1002.75
2018-01-21T01:46:01.229Z,1002.79
2018-01-21T01:47:01.216Z,1002.79
2018-01-21T01:48:01.206Z,1002.79
2018-01-21T01:49:01.197Z,1002.82
2018-01-21T01:50:01.187Z,1002.86
2018-01-21T01:51:01.175Z,1002.89
2018-01-21T01:52:01.166Z,1002.93
2018-01-21T01:53:01.160Z,1002.94
2018-01-21T01:54:01.151Z,1002.93
2018-01-21T01:55:01.141Z,1003.06
2018-01-21T01:56:01.129Z,1002.99
2018-01-21T01:57:01.120Z,1003.02
2018-01-21T01:58:01.110Z,1003.09
2018-01-21T01:59:01.098Z,1003.05
2018-01-21T02:00:01.090Z,1003.09
2018-01-21T02:01:01.075Z,1003.10
2018-01-21T02:02:01.065Z,1003.14
2018-01-21T02:03:01.054Z,1003.15
2018-01-21T02:04:01.045Z,1003.20
2018-01-21T02:05:01.034Z,1003.19
2018-01-21T02:06:01.026Z,1003.26
2018-01-21T02:07:01.013Z,1003.28
2018-01-21T02:08:01.003Z,1003.29
2018-01-21T02:09:00.997Z,1003.22
2018-01-21T02:10:00.988Z,1003.26
2018-01-21T02:11:01.025Z,1003.25
2018-01-21T02:12:00.966Z,1003.21
2018-01-21T02:13:00.952Z,1003.32
2018-01-21T02:14:00.942Z,1003.31
2018-01-21T02:15:00.930Z,1003.31
2018-01-21T02:16:00.921Z,1003.30
2018-01-21T02:17:00.915Z,1003.33
2018-01-21T02:18:00.905Z,1003.34
2018-01-21T02:19:00.894Z,1003.41
2018-01-21T02:20:00.883Z,1003.48
2018-01-21T02:21:00.874Z,1003.37
2018-01-21T02:22:00.863Z,1003.46
2018-01-21T02:23:00.854Z,1003.45
2018-01-21T02:24:00.843Z,1003.50
2018-01-21T02:25:00.827Z,1003.57
2018-01-21T02:26:00.818Z,1003.57
2018-01-21T02:27:00.808Z,1003.54
2018-01-21T02:28:00.798Z,1003.61
2018-01-21T02:29:00.786Z,1003.62
2018-01-21T02:30:00.777Z,1003.64
2018-01-21T02:31:00.766Z,1003.59
2018-01-21T02:32:00.758Z,1003.54
2018-01-21T02:33:00.750Z,1003.56
2018-01-21T02:34:00.739Z,1003.55
2018-01-21T02:35:00.728Z,1003.57
2018-01-21T02:36:00.719Z,1003.61
2018-01-21T02:37:00.708Z,1003.63
2018-01-21T02:38:00.699Z,1003.63
2018-01-21T02:39:00.686Z,1003.69
2018-01-21T02:40:00.677Z,1003.69
2018-01-21T02:41:00.663Z,1003.63
2018-01-21T02:42:00.652Z,1003.70
2018-01-21T02:43:00.667Z,1003.71
2018-01-21T02:44:00.631Z,1003.77
2018-01-21T02:45:00.619Z,1003.72
2018-01-21T02:46:00.609Z,1003.72
2018-01-21T02:47:00.598Z,1003.77
2018-01-21T02:48:00.587Z,1003.83
2018-01-21T02:49:00.582Z,1003.87
2018-01-21T02:50:00.572Z,1003.88
2018-01-21T02:51:00.560Z,1003.89
2018-01-21T02:52:00.550Z,1003.99
2018-01-21T02:53:00.540Z,1003.99
2018-01-21T02:54:00.528Z,1003.93
2018-01-21T02:55:00.517Z,1003.97
2018-01-21T02:56:00.506Z,1004.00
2018-01-21T02:57:00.493Z,1004.03
2018-01-21T02:58:00.482Z,1004.01
2018-01-21T02:59:00.471Z,1004.01
2018-01-21T03:00:00.461Z,1004.05
2018-01-21T03:01:00.449Z,1004.15
2018-01-21T03:02:00.439Z,1004.08
2018-01-21T03:03:00.428Z,1004.09
2018-01-21T03:04:00.419Z,1004.12
2018-01-21T03:05:00.413Z,1004.20
2018-01-21T03:06:00.402Z,1004.23
2018-01-21T03:07:00.390Z,1004.19
2018-01-21T03:08:00.380Z,1004.23
2018-01-21T03:09:00.370Z,1004.24
2018-01-21T03:10:00.361Z,1004.25
2018-01-21T03:11:00.348Z,1004.24
2018-01-21T03:12:00.338Z,1004.28
2018-01-21T03:13:00.326Z,1004.31
2018-01-21T03:14:00.313Z,1004.39
2018-01-21T03:15:00.303Z,1004.41
2018-01-21T03:16:00.292Z,1004.43
2018-01-21T03:17:00.287Z,1004.48
2018-01-21T03:18:00.275Z,1004.52
2018-01-21T03:19:00.264Z,1004.55
2018-01-21T03:20:00.254Z,1004.58
2018-01-21T03:21:00.239Z,1004.56
2018-01-21T03:22:00.230Z,1004.59
2018-01-21T03:23:00.218Z,1004.59
2018-01-21T03:24:00.208Z,1004.65
2018-01-21T03:25:00.199Z,1004.66
2018-01-21T03:26:00.188Z,1004.67
2018-01-21T03:27:00.176Z,1004.69
2018-01-21T03:28:00.166Z,1004.74
2018-01-21T03:29:00.161Z,1004.76
2018-01-21T03:30:00.155Z,1004.75
2018-01-21T03:31:00.157Z,1004.74
2018-01-21T03:32:00.133Z,1004.75
2018-01-21T03:33:00.119Z,1004.79
2018-01-21T03:34:00.109Z,1004.84
2018-01-21T03:35:00.098Z,1004.81
2018-01-21T03:36:00.089Z,1004.84
2018-01-21T03:37:00.073Z,1004.92
2018-01-21T03:38:00.063Z,1004.90
2018-01-21T03:39:00.054Z,1004.88
2018-01-21T03:40:00.046Z,1004.97
2018-01-21T03:41:00.035Z,1004.99
2018-01-21T03:42:00.024Z,1005.00
2018-01-21T03:43:00.013Z,1005.05
2018-01-21T03:43:59.999Z,1005.04
2018-01-21T03:44:59.993Z,1005.12
2018-01-21T03:45:59.988Z,1005.10
2018-01-21T03:46:59.972Z,1005.04
2018-01-21T03:47:59.969Z,1005.06
2018-01-21T03:48:59.951Z,1005.08
2018-01-21T03:49:59.941Z,1005.08
2018-01-21T03:50:59.930Z,1005.11
2018-01-21T03:51:59.919Z,1005.17
2018-01-21T03:52:59.906Z,1005.15
2018-01-21T03:53:59.895Z,1005.18
2018-01-21T03:54:59.886Z,1005.25
2018-01-21T03:55:59.873Z,1005.26
2018-01-21T03:56:59.863Z,1005.27
2018-01-21T03:57:59.852Z,1005.33
2018-01-21T03:58:59.842Z,1005.32
2018-01-21T03:59:59.832Z,1005.36
2018-01-21T04:00:59.826Z,1005.35
2018-01-21T04:01:59.816Z,1005.39
2018-01-21T04:02:59.806Z,1005.40
2018-01-21T04:03:59.794Z,1005.43
2018-01-21T04:04:59.785Z,1005.41
2018-01-21T04:05:59.775Z,1005.47
2018-01-21T04:06:59.763Z,1005.43
2018-01-21T04:07:59.753Z,1005.46
2018-01-21T04:08:59.739Z,1005.44
2018-01-21T04:09:59.728Z,1005.51
2018-01-21T04:10:59.717Z,1005.53
2018-01-21T04:11:59.708Z,1005.53
2018-01-21T04:12:59.697Z,1005.52
2018-01-21T04:13:59.687Z,1005.58
2018-01-21T04:14:59.676Z,1005.52
2018-01-21T04:15:59.666Z,1005.58
2018-01-21T04:16:59.660Z,1005.57
2018-01-21T04:17:59.650Z,1005.61
2018-01-21T04:18:59.640Z,1005.54
2018-01-21T04:19:59.629Z,1005.58
2018-01-21T04:20:59.619Z,1005.58
2018-01-21T04:21:59.608Z,1005.59
2018-01-21T04:22:59.600Z,1005.64
2018-01-21T04:23:59.589Z,1005.68
2018-01-21T04:24:59.574Z,1005.61
2018-01-21T04:25:59.564Z,1005.68
2018-01-21T04:26:59.553Z,1005.76
2018-01-21T04:27:59.542Z,1005.74
2018-01-21T04:28:59.532Z,1005.81
2018-01-21T04:29:59.522Z,1005.80
2018-01-21T04:30:59.511Z,1005.78
2018-01-21T04:31:59.501Z,1005.84
2018-01-21T04:32:59.494Z,1005.80
2018-01-21T04:33:59.484Z,1005.81
2018-01-21T04:34:59.473Z,1005.83
2018-01-21T04:35:59.462Z,1005.85
2018-01-21T04:36:59.454Z,1005.90
2018-01-21T04:37:59.443Z,1005.90
2018-01-21T04:38:59.432Z,1005.88
2018-01-21T04:39:59.422Z,1005.90
2018-01-21T04:40:59.406Z,1005.93
2018-01-21T04:41:59.396Z,1005.94
2018-01-21T04:42:59.385Z,1006.04
2018-01-21T04:43:59.375Z,1005.99
2018-01-21T04:44:59.365Z,1006.04
2018-01-21T04:45:59.354Z,1006.07
2018-01-21T04:46:59.343Z,1006.08
2018-01-21T04:47:59.332Z,1006.12
2018-01-21T04:48:59.327Z,1006.11
2018-01-21T04:49:59.321Z,1006.16
2018-01-21T04:50:59.305Z,1006.19
2018-01-21T04:51:59.295Z,1006.17
2018-01-21T04:52:59.284Z,1006.21
2018-01-21T04:53:59.275Z,1006.23
2018-01-21T04:54:59.262Z,1006.23
2018-01-21T04:55:59.254Z,1006.21
2018-01-21T04:56:59.238Z,1006.31
2018-01-21T04:57:59.227Z,1006.34
2018-01-21T04:58:59.215Z,1006.32
2018-01-21T04:59:59.205Z,1006.36
2018-01-21T05:00:59.194Z,1006.42
2018-01-21T05:01:59.184Z,1006.43
2018-01-21T05:02:59.172Z,1006.48
2018-01-21T05:03:59.161Z,1006.43
2018-01-21T05:04:59.155Z,1006.52
2018-01-21T05:05:59.144Z,1006.49
2018-01-21T05:06:59.133Z,1006.52
2018-01-21T05:07:59.122Z,1006.42
2018-01-21T05:08:59.111Z,1006.46
2018-01-21T05:09:59.100Z,1006.42
2018-01-21T05:10:59.092Z,1006.50
2018-01-21T05:11:59.079Z,1006.50
2018-01-21T05:12:59.064Z,1006.48
2018-01-21T05:13:59.056Z,1006.48
2018-01-21T05:14:59.041Z,1006.48
2018-01-21T05:15:59.031Z,1006.45
2018-01-21T05:16:59.020Z,1006.47
2018-01-21T05:17:59.009Z,1006.52
2018-01-21T05:18:58.998Z,1006.52
2018-01-21T05:19:58.988Z,1006.51
2018-01-21T05:20:58.980Z,1006.52
2018-01-21T05:21:58.968Z,1006.55
2018-01-21T05:22:58.957Z,1006.52
2018-01-21T05:23:58.947Z,1006.51
2018-01-21T05:24:58.933Z,1006.56
2018-01-21T05:25:58.920Z,1006.58
2018-01-21T05:26:58.908Z,1006.61
2018-01-21T05:27:58.898Z,1006.58
2018-01-21T05:28:58.890Z,1006.58
2018-01-21T05:29:58.879Z,1006.57
2018-01-21T05:30:58.867Z,1006.60
2018-01-21T05:31:58.856Z,1006.65
2018-01-21T05:32:58.845Z,1006.70
2018-01-21T05:33:58.835Z,1006.66
2018-01-21T05:34:58.825Z,1006.69
2018-01-21T05:35:58.811Z,1006.71
2018-01-21T05:36:58.794Z,1006.72
2018-01-21T05:37:58.784Z,1006.71
2018-01-21T05:38:58.772Z,1006.76
2018-01-21T05:39:58.761Z,1006.76
2018-01-21T05:40:58.750Z,1006.84
2018-01-21T05:41:58.739Z,1006.85
2018-01-21T05:42:58.726Z,1006.81
2018-01-21T05:43:58.715Z,1006.86
2018-01-21T05:44:58.708Z,1006.87
2018-01-21T05:45:58.697Z,1006.88
2018-01-21T05:46:58.686Z,1006.87
2018-01-21T05:47:58.674Z,1006.90
2018-01-21T05:48:58.663Z,1006.83
2018-01-21T05:49:58.653Z,1006.94
2018-01-21T05:50:58.639Z,1006.90
2018-01-21T05:51:58.629Z,1006.97
2018-01-21T05:52:58.613Z,1007.01
2018-01-21T05:53:58.603Z,1007.00
2018-01-21T05:54:58.590Z,1006.99
2018-01-21T05:55:58.579Z,1007.05
2018-01-21T05:56:58.575Z,1007.07
2018-01-21T05:57:58.558Z,1007.07
2018-01-21T05:58:58.545Z,1007.01
2018-01-21T05:59:58.535Z,1007.08
2018-01-21T06:00:58.529Z,1007.02
2018-01-21T06:01:58.519Z,1007.12
2018-01-21T06:02:58.506Z,1007.09
2018-01-21T06:03:58.495Z,1007.13
2018-01-21T06:04:58.484Z,1007.14
2018-01-21T06:05:58.474Z,1007.13
2018-01-21T06:06:58.461Z,1007.20
2018-01-21T06:07:58.451Z,1007.28
2018-01-21T06:08:58.436Z,1007.28
2018-01-21T06:09:58.425Z,1007.29
2018-01-21T06:10:58.414Z,1007.37
2018-01-21T06:11:58.405Z,1007.40
2018-01-21T06:12:58.391Z,1007.41
2018-01-21T06:13:58.381Z,1007.45
2018-01-21T06:14:58.369Z,1007.49
2018-01-21T06:15:58.359Z,1007.52
2018-01-21T06:16:58.352Z,1007.55
2018-01-21T06:17:58.342Z,1007.50
2018-01-21T06:18:58.331Z,1007.61
2018-01-21T06:19:58.319Z,1007.60
2018-01-21T06:20:58.309Z,1007.63
2018-01-21T06:21:58.297Z,1007.65
2018-01-21T06:22:58.287Z,1007.67
2018-01-21T06:23:58.276Z,1007.70
2018-01-21T06:24:58.312Z,1007.68
2018-01-21T06:25:58.250Z,1007.71
2018-01-21T06:26:58.239Z,1007.76
2018-01-21T06:27:58.229Z,1007.76
2018-01-21T06:28:58.224Z,1007.82
2018-01-21T06:29:58.211Z,1007.83
2018-01-21T06:30:58.200Z,1007.89
2018-01-21T06:31:58.190Z,1007.89
2018-01-21T06:32:58.174Z,1007.85
2018-01-21T06:33:58.164Z,1007.89
2018-01-21T06:34:58.154Z,1007.87
2018-01-21T06:35:58.143Z,1007.91
2018-01-21T06:36:58.132Z,1007.92
2018-01-21T06:37:58.121Z,1007.96
2018-01-21T06:38:58.110Z,1008.01
2018-01-21T06:39:58.099Z,1008.02
2018-01-21T06:40:58.094Z,1008.07
2018-01-21T06:41:58.082Z,1008.12
2018-01-21T06:42:58.071Z,1008.11
2018-01-21T06:43:58.061Z,1008.14
2018-01-21T06:44:58.051Z,1008.19
2018-01-21T06:45:58.040Z,1008.15
2018-01-21T06:46:58.029Z,1008.18
2018-01-21T06:47:58.018Z,1008.18
2018-01-21T06:48:58.004Z,1008.26
2018-01-21T06:49:57.992Z,1008.32
2018-01-21T06:50:57.981Z,1008.31
2018-01-21T06:51:57.970Z,1008.29
2018-01-21T06:52:57.960Z,1008.35
2018-01-21T06:53:57.950Z,1008.33
2018-01-21T06:54:57.938Z,1008.31
2018-01-21T06:55:57.928Z,1008.33
2018-01-21T06:56:57.921Z,1008.37
2018-01-21T06:57:57.912Z,1008.38
2018-01-21T06:58:57.899Z,1008.41
2018-01-21T06:59:57.889Z,1008.38
2018-01-21T07:00:57.893Z,1008.44
2018-01-21T07:01:57.869Z,1008.47
2018-01-21T07:02:57.857Z,1008.54
2018-01-21T07:03:57.848Z,1008.52
2018-01-21T07:04:57.833Z,1008.54
2018-01-21T07:05:57.822Z,1008.59
2018-01-21T07:06:57.812Z,1008.56
2018-01-21T07:07:57.800Z,1008.54
2018-01-21T07:08:57.790Z,1008.62
2018-01-21T07:09:57.779Z,1008.67
2018-01-21T07:10:57.768Z,1008.62
2018-01-21T07:11:57.757Z,1008.65
2018-01-21T07:12:57.751Z,1008.70
2018-01-21T07:13:57.742Z,1008.68
2018-01-21T07:14:57.732Z,1008.73
2018-01-21T07:15:57.719Z,1008.74
2018-01-21T07:16:57.710Z,1008.77
2018-01-21T07:17:57.703Z,1008.81
2018-01-21T07:18:57.688Z,1008.77
2018-01-21T07:19:57.676Z,1008.83
2018-01-21T07:20:57.663Z,1008.83
2018-01-21T07:21:57.651Z,1008.82
2018-01-21T07:22:57.640Z,1008.88
2018-01-21T07:23:57.630Z,1008.94
2018-01-21T07:24:57.620Z,1008.93
2018-01-21T07:25:57.608Z,1008.92
2018-01-21T07:26:57.598Z,1008.95
2018-01-21T07:27:57.587Z,1008.96
2018-01-21T07:28:57.581Z,1008.93
2018-01-21T07:29:57.571Z,1009.01
2018-01-21T07:30:57.560Z,1008.99
2018-01-21T07:31:57.551Z,1009.02
2018-01-21T07:32:57.534Z,1009.02
2018-01-21T07:33:57.524Z,1009.10
2018-01-21T07:34:57.515Z,1009.05
2018-01-21T07:35:57.502Z,1009.07
2018-01-21T07:36:57.497Z,1009.07
2018-01-21T07:37:57.487Z,1009.11
2018-01-21T07:38:57.475Z,1009.10
2018-01-21T07:39:57.464Z,1009.11
2018-01-21T07:40:57.454Z,1009.12
2018-01-21T07:41:57.444Z,1009.16
2018-01-21T07:42:57.434Z,1009.27
2018-01-21T07:43:57.423Z,1009.25
2018-01-21T07:44:57.407Z,1009.26
2018-01-21T07:45:57.398Z,1009.25
2018-01-21T07:46:57.385Z,1009.26
2018-01-21T07:47:57.375Z,1009.30
2018-01-21T07:48:57.366Z,1009.34
2018-01-21T07:49:57.358Z,1009.33
2018-01-21T07:50:57.345Z,1009.40
2018-01-21T07:51:57.333Z,1009.37
2018-01-21T07:52:57.328Z,1009.37
2018-01-21T07:53:57.316Z,1009.39
2018-01-21T07:54:57.306Z,1009.40
2018-01-21T07:55:57.296Z,1009.46
2018-01-21T07:56:57.285Z,1009.42
2018-01-21T07:57:57.280Z,1009.51
2018-01-21T07:58:57.263Z,1009.53
2018-01-21T07:59:57.253Z,1009.54
2018-01-21T08:00:57.239Z,1009.54
2018-01-21T08:01:57.230Z,1009.57
2018-01-21T08:02:57.217Z,1009.63
2018-01-21T08:03:57.207Z,1009.58
2018-01-21T08:04:57.197Z,1009.65
2018-01-21T08:05:57.188Z,1009.67
2018-01-21T08:06:57.176Z,1009.72
2018-01-21T08:07:57.165Z,1009.73
2018-01-21T08:08:57.159Z,1009.74
2018-01-21T08:09:57.150Z,1009.79
2018-01-21T08:10:57.143Z,1009.81
2018-01-21T08:11:57.128Z,1009.80
2018-01-21T08:12:57.118Z,1009.83
2018-01-21T08:13:57.108Z,1009.85
2018-01-21T08:14:57.098Z,1009.86
2018-01-21T08:15:57.088Z,1009.96
2018-01-21T08:16:57.072Z,1009.91
2018-01-21T08:17:57.062Z,1009.95
2018-01-21T08:18:57.051Z,1009.97
2018-01-21T08:19:57.041Z,1010.01
2018-01-21T08:20:57.032Z,1010.00
2018-01-21T08:21:57.022Z,1010.01
2018-01-21T08:22:57.010Z,1010.04
2018-01-21T08:23:56.999Z,1010.01
2018-01-21T08:24:56.995Z,1010.03
2018-01-21T08:25:56.984Z,1010.01
2018-01-21T08:26:56.973Z,1010.04
2018-01-21T08:27:56.963Z,1010.07
2018-01-21T08:28:56.953Z,1010.07
2018-01-21T08:29:56.942Z,1010.05
2018-01-21T08:30:56.932Z,1010.08
2018-01-21T08:31:56.921Z,1010.10
2018-01-21T08:32:56.909Z,1010.17
2018-01-21T08:33:56.898Z,1010.13
2018-01-21T08:34:56.888Z,1010.17
2018-01-21T08:35:56.877Z,1010.24
2018-01-21T08:36:56.869Z,1010.18
2018-01-21T08:37:56.858Z,1010.19
2018-01-21T08:38:56.846Z,1010.19
2018-01-21T08:39:56.837Z,1010.16
2018-01-21T08:40:56.831Z,1010.27
2018-01-21T08:41:56.822Z,1010.27
2018-01-21T08:42:56.811Z,1010.27
2018-01-21T08:43:56.801Z,1010.28
2018-01-21T08:44:56.794Z,1010.25
2018-01-21T08:45:56.783Z,1010.31
2018-01-21T08:46:56.776Z,1010.35
2018-01-21T08:47:56.764Z,1010.36
2018-01-21T08:48:56.753Z,1010.34
2018-01-21T08:49:56.743Z,1010.31
2018-01-21T08:50:56.734Z,1010.32
2018-01-21T08:51:56.725Z,1010.35
2018-01-21T08:52:56.718Z,1010.44
2018-01-21T08:53:56.706Z,1010.43
2018-01-21T08:54:56.692Z,1010.47
2018-01-21T08:55:56.682Z,1010.44
2018-01-21T08:56:56.679Z,1010.44
2018-01-21T08:57:56.668Z,1010.45
2018-01-21T08:58:56.658Z,1010.42
2018-01-21T08:59:56.650Z,1010.46
2018-01-21T09:00:56.640Z,1010.42
2018-01-21T09:01:56.632Z,1010.46
2018-01-21T09:02:56.621Z,1010.49
2018-01-21T09:03:56.612Z,1010.50
2018-01-21T09:04:56.599Z,1010.54
2018-01-21T09:05:56.591Z,1010.54
2018-01-21T09:06:56.580Z,1010.52
2018-01-21T09:07:56.572Z,1010.52
2018-01-21T09:08:56.563Z,1010.56
2018-01-21T09:09:56.554Z,1010.55
2018-01-21T09:10:56.544Z,1010.53
2018-01-21T09:11:56.536Z,1010.52
2018-01-21T09:12:56.532Z,1010.57
2018-01-21T09:13:56.521Z,1010.56
2018-01-21T09:14:56.513Z,1010.59
2018-01-21T09:15:56.506Z,1010.60
2018-01-21T09:16:56.495Z,1010.64
2018-01-21T09:17:56.488Z,1010.66
2018-01-21T09:18:56.478Z,1010.68
2018-01-21T09:19:56.468Z,1010.66
2018-01-21T09:20:56.457Z,1010.71
2018-01-21T09:21:56.450Z,1010.70
2018-01-21T09:22:56.440Z,1010.75
2018-01-21T09:23:56.430Z,1010.74
2018-01-21T09:24:56.421Z,1010.71
2018-01-21T09:25:56.415Z,1010.74
2018-01-21T09:26:56.406Z,1010.81
2018-01-21T09:27:56.395Z,1010.78
2018-01-21T09:28:56.393Z,1010.80
2018-01-21T09:29:56.383Z,1010.85
2018-01-21T09:30:56.375Z,1010.84
2018-01-21T09:31:56.366Z,1010.83
2018-01-21T09:32:56.358Z,1010.84
2018-01-21T09:33:56.355Z,1010.88
2018-01-21T09:34:56.339Z,1010.90
2018-01-21T09:35:56.332Z,1010.91
2018-01-21T09:36:56.322Z,1010.91
2018-01-21T09:37:56.310Z,1010.99
2018-01-21T09:38:56.301Z,1010.99
2018-01-21T09:39:56.293Z,1010.96
2018-01-21T09:40:56.289Z,1011.03
2018-01-21T09:41:56.290Z,1011.07
2018-01-21T09:42:56.273Z,1011.06
2018-01-21T09:43:56.263Z,1011.09
2018-01-21T09:44:56.251Z,1011.07
2018-01-21T09:45:56.243Z,1011.01
2018-01-21T09:46:56.236Z,1011.00
2018-01-21T09:47:56.228Z,1011.00
2018-01-21T09:48:56.223Z,1011.05
2018-01-21T09:49:56.217Z,1011.01
2018-01-21T09:50:56.204Z,1011.06
2018-01-21T09:51:56.196Z,1011.10
2018-01-21T09:52:56.192Z,1011.11
2018-01-21T09:53:56.186Z,1011.20
2018-01-21T09:54:56.177Z,1011.20
2018-01-21T09:55:56.171Z,1011.19
2018-01-21T09:56:56.163Z,1011.24
2018-01-21T09:57:56.155Z,1011.31
2018-01-21T09:58:56.149Z,1011.34
2018-01-21T09:59:56.142Z,1011.37
2018-01-21T10:00:56.128Z,1011.48
2018-01-21T10:01:56.121Z,1011.49
2018-01-21T10:02:56.114Z,1011.47
2018-01-21T10:03:56.107Z,1011.49
2018-01-21T10:04:56.099Z,1011.54
2018-01-21T10:05:56.100Z,1011.56
2018-01-21T10:06:56.086Z,1011.57
2018-01-21T10:07:56.079Z,1011.59
2018-01-21T10:08:56.076Z,1011.58
2018-01-21T10:09:56.071Z,1011.53
2018-01-21T10:10:56.063Z,1011.47
2018-01-21T10:11:56.057Z,1011.47
2018-01-21T10:12:56.050Z,1011.48
2018-01-21T10:13:56.045Z,1011.50
2018-01-21T10:14:56.037Z,1011.52
2018-01-21T10:15:56.032Z,1011.51
2018-01-21T10:16:56.021Z,1011.47
2018-01-21T10:17:56.014Z,1011.50
2018-01-21T10:18:56.008Z,1011.52
2018-01-21T10:19:56.003Z,1011.50
2018-01-21T10:20:55.995Z,1011.55
2018-01-21T10:21:55.988Z,1011.58
2018-01-21T10:22:55.981Z,1011.62
2018-01-21T10:23:55.974Z,1011.65
2018-01-21T10:24:55.972Z,1011.70
2018-01-21T10:25:55.964Z,1011.67
2018-01-21T10:26:55.957Z,1011.65
2018-01-21T10:27:55.950Z,1011.64
2018-01-21T10:28:55.943Z,1011.67
2018-01-21T10:29:55.937Z,1011.71
2018-01-21T10:30:55.930Z,1011.77
2018-01-21T10:31:55.923Z,1011.81
2018-01-21T10:32:55.913Z,1011.82
2018-01-21T10:33:55.904Z,1011.93
2018-01-21T10:34:55.897Z,1011.92
2018-01-21T10:35:55.929Z,1011.88
2018-01-21T10:36:55.883Z,1011.95
2018-01-21T10:37:55.876Z,1011.90
2018-01-21T10:38:55.869Z,1011.94
2018-01-21T10:39:55.860Z,1011.92
2018-01-21T10:40:55.858Z,1011.90
2018-01-21T10:41:55.854Z,1011.91
2018-01-21T10:42:55.847Z,1011.90
2018-01-21T10:43:55.841Z,1011.94
2018-01-21T10:44:55.829Z,1011.94
2018-01-21T10:45:55.820Z,1011.95
2018-01-21T10:46:55.812Z,1011.98
2018-01-21T10:47:55.806Z,1011.94
2018-01-21T10:48:55.802Z,1011.95
2018-01-21T10:49:55.795Z,1011.94
2018-01-21T10:50:55.789Z,1011.96
2018-01-21T10:51:55.781Z,1011.96
2018-01-21T10:52:55.774Z,1012.01
2018-01-21T10:53:55.768Z,1011.99
2018-01-21T10:54:55.760Z,1012.02
2018-01-21T10:55:55.754Z,1012.00
2018-01-21T10:56:55.743Z,1012.03
2018-01-21T10:57:55.735Z,1011.99
2018-01-21T10:58:55.726Z,1012.01
2018-01-21T10:59:55.723Z,1011.96
2018-01-21T11:00:55.716Z,1012.00
2018-01-21T11:01:55.707Z,1012.00
2018-01-21T11:02:55.699Z,1012.10
2018-01-21T11:03:55.722Z,1012.09
2018-01-21T11:04:55.691Z,1012.11
2018-01-21T11:05:55.685Z,1012.18
2018-01-21T11:06:55.678Z,1012.15
2018-01-21T11:07:55.673Z,1012.11
2018-01-21T11:08:55.666Z,1012.10
2018-01-21T11:09:55.663Z,1012.15
2018-01-21T11:10:55.655Z,1012.14
2018-01-21T11:11:55.650Z,1012.16
2018-01-21T11:12:55.641Z,1012.13
2018-01-21T11:13:55.637Z,1012.05
2018-01-21T11:14:55.637Z,1012.03
2018-01-21T11:15:55.628Z,1012.01
2018-01-21T11:16:55.623Z,1012.06
2018-01-21T11:17:55.618Z,1012.12
2018-01-21T11:18:55.612Z,1012.11
2018-01-21T11:19:55.609Z,1012.12
2018-01-21T11:20:55.609Z,1012.09
2018-01-21T11:21:55.604Z,1012.02
2018-01-21T11:22:55.598Z,1012.03
2018-01-21T11:23:55.594Z,1012.07
2018-01-21T11:24:55.590Z,1012.04
2018-01-21T11:25:55.585Z,1012.08
2018-01-21T11:26:55.582Z,1012.05
2018-01-21T11:27:55.576Z,1012.02
2018-01-21T11:28:55.567Z,1011.99
2018-01-21T11:29:55.561Z,1012.00
2018-01-21T11:30:55.556Z,1012.06
2018-01-21T11:31:55.552Z,1012.06
2018-01-21T11:32:55.546Z,1012.09
2018-01-21T11:33:55.541Z,1012.09
2018-01-21T11:34:55.535Z,1012.12
2018-01-21T11:35:55.532Z,1012.12
2018-01-21T11:36:55.530Z,1012.05
2018-01-21T11:37:55.527Z,1012.07
2018-01-21T11:38:55.520Z,1012.10
2018-01-21T11:39:55.516Z,1012.13
2018-01-21T11:40:55.511Z,1012.10
2018-01-21T11:41:55.505Z,1012.01
2018-01-21T11:42:55.502Z,1012.02
2018-01-21T11:43:55.495Z,1011.96
2018-01-21T11:44:55.487Z,1011.95
2018-01-21T11:45:55.481Z,1011.92
2018-01-21T11:46:55.478Z,1011.94
2018-01-21T11:47:55.472Z,1011.87
2018-01-21T11:48:55.470Z,1011.93
2018-01-21T11:49:55.465Z,1011.90
2018-01-21T11:50:55.459Z,1011.93
2018-01-21T11:51:55.454Z,1011.96
2018-01-21T11:52:55.500Z,1011.99
2018-01-21T11:53:55.441Z,1012.00
2018-01-21T11:54:55.434Z,1012.06
2018-01-21T11:55:55.430Z,1012.04
2018-01-21T11:56:55.424Z,1012.05
2018-01-21T11:57:55.420Z,1012.07
2018-01-21T11:58:55.414Z,1012.09
2018-01-21T11:59:55.410Z,1012.11
2018-01-21T12:00:55.409Z,1012.09
2018-01-21T12:01:55.405Z,1012.08
2018-01-21T12:02:55.398Z,1012.08
2018-01-21T12:03:55.394Z,1012.01
2018-01-21T12:04:55.389Z,1011.95